Gasburg, Virginia
Current Conditions -  °F | °C
As of 3:56 AM on Monday 24 Nov 2014 (Local Time) from KAVC Reporting Station
Scattered Clouds Scattered Clouds  
Wind Chill: 64°   Ceiling: Unl
Heat Index: 64°   Visibility: 10mi
Dew Point: 61°   Wind: 13mph
Humidity: 92%   Direction: 180°S
Pressure: 29.8"   Gusts: NA
Location:  36.58°N, 77.88°W
Report Text: KAVC 240856Z AUTO 18011KT 10SM SCT026 SCT031 SCT046 18/16 A2980 RMK AO2 LTG DSNT S T01750162
Loading
Personal Weather Stations






























Interactive Weather Map New forecast layout! Learn more

10-Day Weather Forecast

Advertisements
Track Severe Weather on mobile